Alvada, Ohio
Current Conditions -  °F | °C
As of 4:53 PM on Thursday 23 Oct 2014 (Local Time) from KFDY Reporting Station
Clear Clear  
Wind Chill: 57°   Ceiling: Unl
Heat Index: 57°   Visibility: 10mi
Dew Point: 40°   Wind: 3mph
Humidity: 53%   Direction: NA
Pressure: 30.14"   Gusts: NA
Location:  41.05°N, 83.4°W
Report Text: KFDY 232053Z AUTO VRB03KT 10SM CLR 14/04 A3014 RMK AO2 SLP205 T01390044 56022
Loading
Personal Weather Stations






























Interactive Weather Map
Tropical Storm Tracking
New forecast layout! Learn more

10-Day Weather Forecast

Advertisements
Track Severe Weather on mobile